Time;durP1;ratioP1;P1;durP2;ratioP2;P2;SDS_P1;SDS_P2;PMS_P1;PMS_P2;Temp;Humidity;BMP_temperature;BMP_pressure;BME280_temperature;BME280_humidity;BME280_pressure;Samples;Min_cycle;Max_cycle;Signal;HPM_P1;HPM_P2
2023/05/21 00:01:54;;;;;;;;;;;22.90;53.60;;;;;;1563193;75;1425;-57
2023/05/21 00:03:58;;;;;;;;;;;22.90;53.50;;;;;;1561215;75;718;-58
2023/05/21 00:06:00;;;;;;;;;;;22.90;53.40;;;;;;1551641;75;818;-57
2023/05/21 00:08:02;;;;;;;;;;;22.80;53.40;;;;;;1549519;75;1102;-58
2023/05/21 00:10:04;;;;;;;;;;;22.90;53.40;;;;;;1545532;75;702;-59
2023/05/21 00:12:06;;;;;;;;;;;22.90;53.40;;;;;;1534680;75;713;-58
2023/05/21 00:14:08;;;;;;;;;;;22.90;53.50;;;;;;1556925;75;1933;-57
2023/05/21 00:16:10;;;;;;;;;;;22.80;53.20;;;;;;1548845;75;1367;-57
2023/05/21 00:18:12;;;;;;;;;;;22.80;53.30;;;;;;1554616;75;682;-57
2023/05/21 00:20:15;;;;;;;;;;;22.90;53.50;;;;;;1549267;75;680;-57
2023/05/21 00:22:17;;;;;;;;;;;22.90;53.40;;;;;;1563732;75;729;-58
2023/05/21 00:24:19;;;;;;;;;;;22.90;53.30;;;;;;1543004;75;670;-57
2023/05/21 00:26:21;;;;;;;;;;;22.80;53.30;;;;;;1536874;75;1114;-57
2023/05/21 00:28:23;;;;;;;;;;;22.90;53.50;;;;;;1542090;75;702;-57
2023/05/21 00:30:24;;;;;;;;;;;22.90;53.40;;;;;;1541132;75;1391;-57
2023/05/21 00:32:26;;;;;;;;;;;22.90;53.20;;;;;;1557659;75;740;-58
2023/05/21 00:34:28;;;;;;;;;;;22.90;53.10;;;;;;1550875;75;1937;-59
2023/05/21 00:36:30;;;;;;;;;;;22.90;53.10;;;;;;1542019;75;1146;-57
2023/05/21 00:38:32;;;;;;;;;;;22.90;53.20;;;;;;1541863;75;699;-57
2023/05/21 00:40:35;;;;;;;;;;;22.90;53.10;;;;;;1543791;75;690;-57
2023/05/21 00:42:41;;;;;;;;;;;22.90;53.10;;;;;;1555546;75;745;-58
2023/05/21 00:44:40;;;;;;;;;;;23.00;53.10;;;;;;1548432;75;1485;-57
2023/05/21 00:46:43;;;;;;;;;;;22.90;53.00;;;;;;1539053;75;1274;-59
2023/05/21 00:48:45;;;;;;;;;;;23.00;53.00;;;;;;1535590;75;695;-58
2023/05/21 00:50:48;;;;;;;;;;;23.00;52.90;;;;;;1538108;75;740;-57
2023/05/21 00:52:50;;;;;;;;;;;23.00;52.90;;;;;;1540324;75;1921;-57
2023/05/21 00:54:52;;;;;;;;;;;23.00;52.80;;;;;;1536781;75;1093;-60
2023/05/21 00:56:54;;;;;;;;;;;23.00;52.90;;;;;;1530977;75;1192;-58
2023/05/21 00:58:59;;;;;;;;;;;23.00;52.90;;;;;;1541202;75;1414;-58
2023/05/21 01:01:05;;;;;;;;;;;23.00;52.90;;;;;;1541794;75;694;-57
2023/05/21 01:03:04;;;;;;;;;;;22.90;52.90;;;;;;1541468;75;1373;-59
2023/05/21 01:05:06;;;;;;;;;;;23.00;53.00;;;;;;1549531;75;760;-57
2023/05/21 01:07:08;;;;;;;;;;;22.90;53.00;;;;;;1553468;75;1133;-58
2023/05/21 01:09:10;;;;;;;;;;;22.90;52.90;;;;;;1548020;75;684;-57
2023/05/21 01:11:13;;;;;;;;;;;22.90;52.90;;;;;;1540257;75;859;-60
2023/05/21 01:13:15;;;;;;;;;;;22.90;52.90;;;;;;1542142;75;1928;-57
2023/05/21 01:15:17;;;;;;;;;;;22.90;52.90;;;;;;1541324;75;708;-58
2023/05/21 01:17:23;;;;;;;;;;;23.00;52.90;;;;;;1550012;75;1107;-57
2023/05/21 01:19:23;;;;;;;;;;;23.00;52.80;;;;;;1543858;75;1493;-59
2023/05/21 01:21:27;;;;;;;;;;;22.90;52.80;;;;;;1554418;75;698;-56
2023/05/21 01:23:28;;;;;;;;;;;22.90;52.80;;;;;;1548166;75;1463;-55
2023/05/21 01:25:30;;;;;;;;;;;22.90;52.80;;;;;;1538211;75;694;-57
2023/05/21 01:27:32;;;;;;;;;;;22.90;52.80;;;;;;1531145;75;1584;-57
2023/05/21 01:29:34;;;;;;;;;;;22.90;52.70;;;;;;1545297;75;739;-56
2023/05/21 01:31:43;;;;;;;;;;;22.90;52.70;;;;;;1556576;75;741;-58
2023/05/21 01:33:47;;;;;;;;;;;22.90;52.70;;;;;;1543882;75;2270;-55
2023/05/21 01:35:59;;;;;;;;;;;22.90;52.80;;;;;;1535753;75;744;-57
2023/05/21 01:38:03;;;;;;;;;;;22.90;52.80;;;;;;1562562;75;1840;-59
2023/05/21 01:40:12;;;;;;;;;;;22.90;52.80;;;;;;1545121;75;1409;-58
2023/05/21 01:42:15;;;;;;;;;;;22.90;52.80;;;;;;1544094;75;1759;-55
2023/05/21 01:44:17;;;;;;;;;;;22.90;52.80;;;;;;1542215;75;677;-57
2023/05/21 01:46:19;;;;;;;;;;;22.80;52.90;;;;;;1540282;75;1193;-57
2023/05/21 01:48:22;;;;;;;;;;;22.90;53.00;;;;;;1551330;75;685;-57
2023/05/21 01:50:24;;;;;;;;;;;22.90;52.90;;;;;;1549526;75;697;-56
2023/05/21 01:52:26;;;;;;;;;;;22.90;52.90;;;;;;1550316;75;717;-56
2023/05/21 01:54:28;;;;;;;;;;;22.90;52.80;;;;;;1544777;75;1925;-57
2023/05/21 01:56:32;;;;;;;;;;;22.80;52.70;;;;;;1555178;75;1185;-58
2023/05/21 01:58:33;;;;;;;;;;;22.80;52.70;;;;;;1533882;75;1470;-57
2023/05/21 02:00:36;;;;;;;;;;;22.80;52.70;;;;;;1534452;76;673;-59
2023/05/21 02:02:38;;;;;;;;;;;22.90;52.90;;;;;;1544391;75;712;-57
2023/05/21 02:04:43;;;;;;;;;;;22.90;52.80;;;;;;1546346;75;789;-55
2023/05/21 02:06:45;;;;;;;;;;;22.80;52.80;;;;;;1558835;75;1088;-56
2023/05/21 02:08:47;;;;;;;;;;;22.80;52.80;;;;;;1552907;75;1493;-58
2023/05/21 02:10:49;;;;;;;;;;;22.80;52.80;;;;;;1539773;75;596;-58
2023/05/21 02:12:51;;;;;;;;;;;22.80;52.80;;;;;;1549054;75;672;-59
2023/05/21 02:14:55;;;;;;;;;;;22.70;52.90;;;;;;1552957;75;1943;-60
2023/05/21 02:16:56;;;;;;;;;;;22.80;52.80;;;;;;1538509;75;1116;-58
2023/05/21 02:18:59;;;;;;;;;;;22.80;52.80;;;;;;1542034;75;685;-59
2023/05/21 02:21:01;;;;;;;;;;;22.70;52.90;;;;;;1543752;75;740;-57
2023/05/21 02:23:03;;;;;;;;;;;22.70;53.00;;;;;;1538022;75;1571;-57
2023/05/21 02:25:06;;;;;;;;;;;22.80;52.90;;;;;;1549511;75;685;-57
2023/05/21 02:27:12;;;;;;;;;;;22.70;53.00;;;;;;1544892;75;1134;-58
2023/05/21 02:29:12;;;;;;;;;;;22.80;53.00;;;;;;1547511;75;1144;-56
2023/05/21 02:31:13;;;;;;;;;;;22.70;52.90;;;;;;1543722;75;794;-57
2023/05/21 02:33:15;;;;;;;;;;;22.80;52.90;;;;;;1542882;75;1933;-59
2023/05/21 02:35:17;;;;;;;;;;;22.80;52.90;;;;;;1537689;75;746;-59
2023/05/21 02:37:19;;;;;;;;;;;22.90;53.10;;;;;;1542700;75;1535;-57
2023/05/21 02:39:21;;;;;;;;;;;22.80;52.90;;;;;;1545198;75;730;-56
2023/05/21 02:41:23;;;;;;;;;;;22.90;53.00;;;;;;1544178;75;595;-56
2023/05/21 02:43:25;;;;;;;;;;;22.80;52.90;;;;;;1547765;75;684;-57
2023/05/21 02:45:27;;;;;;;;;;;22.80;52.80;;;;;;1548245;75;680;-56
2023/05/21 02:47:29;;;;;;;;;;;22.70;52.90;;;;;;1542541;75;1183;-56
2023/05/21 02:49:31;;;;;;;;;;;22.70;53.00;;;;;;1557353;75;750;-57
2023/05/21 02:51:33;;;;;;;;;;;22.70;53.40;;;;;;1544299;75;1441;-56
2023/05/21 02:53:35;;;;;;;;;;;22.70;53.20;;;;;;1541216;75;1937;-56
2023/05/21 02:55:37;;;;;;;;;;;22.70;53.30;;;;;;1551160;74;1183;-57
2023/05/21 02:57:39;;;;;;;;;;;22.70;53.40;;;;;;1558137;75;1150;-58
2023/05/21 02:59:40;;;;;;;;;;;22.70;53.30;;;;;;1555489;74;644;-56
2023/05/21 03:01:43;;;;;;;;;;;22.70;53.30;;;;;;1559388;74;666;-57
2023/05/21 03:03:45;;;;;;;;;;;22.70;53.30;;;;;;1564174;76;649;-57
2023/05/21 03:05:47;;;;;;;;;;;22.60;53.40;;;;;;1557468;74;1487;-56
2023/05/21 03:07:49;;;;;;;;;;;22.60;53.40;;;;;;1557419;74;1142;-55
2023/05/21 03:09:51;;;;;;;;;;;22.70;53.60;;;;;;1554926;75;732;-56
2023/05/21 03:11:53;;;;;;;;;;;22.60;53.60;;;;;;1561857;74;663;-55
2023/05/21 03:13:55;;;;;;;;;;;22.60;53.50;;;;;;1556300;74;1935;-54
2023/05/21 03:15:57;;;;;;;;;;;22.60;53.40;;;;;;1556724;74;699;-57
2023/05/21 03:17:59;;;;;;;;;;;22.70;53.40;;;;;;1566710;74;1096;-57
2023/05/21 03:20:04;;;;;;;;;;;22.70;53.20;;;;;;1560261;75;1361;-57
2023/05/21 03:22:04;;;;;;;;;;;22.80;53.20;;;;;;1561180;75;1472;-56
2023/05/21 03:24:06;;;;;;;;;;;22.80;53.10;;;;;;1558075;75;669;-54
2023/05/21 03:26:08;;;;;;;;;;;22.70;53.10;;;;;;1559089;75;691;-54
2023/05/21 03:28:10;;;;;;;;;;;22.90;53.10;;;;;;1557792;74;1075;-59
2023/05/21 03:30:12;;;;;;;;;;;22.80;53.00;;;;;;1564637;75;697;-59
2023/05/21 03:32:14;;;;;;;;;;;22.70;53.00;;;;;;1562541;76;674;-57
2023/05/21 03:34:16;;;;;;;;;;;22.70;52.90;;;;;;1563940;74;1939;-57
2023/05/21 03:36:18;;;;;;;;;;;22.80;52.90;;;;;;1554862;74;1139;-58
2023/05/21 03:38:19;;;;;;;;;;;22.70;53.00;;;;;;1559015;74;702;-57
2023/05/21 03:40:21;;;;;;;;;;;22.80;52.80;;;;;;1554853;74;680;-56
2023/05/21 03:42:23;;;;;;;;;;;22.80;52.80;;;;;;1556569;74;586;-56
2023/05/21 03:44:25;;;;;;;;;;;22.70;53.00;;;;;;1558920;74;726;-56
2023/05/21 03:46:27;;;;;;;;;;;22.70;53.00;;;;;;1555968;74;1129;-56
2023/05/21 03:48:29;;;;;;;;;;;22.70;53.40;;;;;;1548029;74;1520;-58
2023/05/21 03:50:31;;;;;;;;;;;22.70;53.30;;;;;;1565880;75;698;-56
2023/05/21 03:52:33;;;;;;;;;;;22.70;53.10;;;;;;1567839;74;611;-55
2023/05/21 03:54:34;;;;;;;;;;;22.70;53.10;;;;;;1559266;74;1931;-56
2023/05/21 03:56:36;;;;;;;;;;;22.70;53.00;;;;;;1549415;75;1191;-54
2023/05/21 03:58:38;;;;;;;;;;;22.70;53.00;;;;;;1551140;75;813;-57
2023/05/21 04:00:41;;;;;;;;;;;22.70;53.00;;;;;;1546242;76;682;-58
2023/05/21 04:02:42;;;;;;;;;;;22.70;53.00;;;;;;1557161;76;665;-56
2023/05/21 04:04:45;;;;;;;;;;;22.70;52.90;;;;;;1549361;76;676;-56
2023/05/21 04:06:48;;;;;;;;;;;22.70;52.90;;;;;;1543143;75;1149;-56
2023/05/21 04:08:51;;;;;;;;;;;22.70;52.80;;;;;;1563662;75;759;-56
2023/05/21 04:10:52;;;;;;;;;;;22.70;52.90;;;;;;1552456;76;709;-56
2023/05/21 04:12:54;;;;;;;;;;;22.70;52.90;;;;;;1544725;76;604;-56
2023/05/21 04:14:56;;;;;;;;;;;22.70;52.90;;;;;;1550700;75;1943;-55
2023/05/21 04:16:58;;;;;;;;;;;22.70;52.80;;;;;;1544523;75;1147;-55
2023/05/21 04:19:00;;;;;;;;;;;22.70;52.80;;;;;;1551967;76;731;-56
2023/05/21 04:21:02;;;;;;;;;;;22.70;52.80;;;;;;1557043;76;748;-55
2023/05/21 04:23:04;;;;;;;;;;;22.70;52.80;;;;;;1541755;75;659;-57
2023/05/21 04:25:06;;;;;;;;;;;22.70;52.70;;;;;;1554198;75;665;-57
2023/05/21 04:27:08;;;;;;;;;;;22.70;52.80;;;;;;1551510;76;1150;-56
2023/05/21 04:29:10;;;;;;;;;;;22.70;52.70;;;;;;1556880;75;1436;-56
2023/05/21 04:31:12;;;;;;;;;;;22.70;52.70;;;;;;1535905;75;782;-56
2023/05/21 04:33:16;;;;;;;;;;;22.70;52.60;;;;;;1554293;75;613;-56
2023/05/21 04:35:17;;;;;;;;;;;22.70;52.60;;;;;;1551035;75;1924;-57
2023/05/21 04:37:23;;;;;;;;;;;22.70;52.80;;;;;;1549945;75;1119;-56
2023/05/21 04:39:23;;;;;;;;;;;22.70;52.90;;;;;;1543282;75;1682;-58
2023/05/21 04:41:25;;;;;;;;;;;22.70;52.80;;;;;;1539486;75;679;-57
2023/05/21 04:43:27;;;;;;;;;;;22.70;52.70;;;;;;1548453;75;1495;-58
2023/05/21 04:46:24;;;;;;;;;;;22.70;52.60;;;;;;1614409;72;1215;-57
2023/05/21 04:48:28;;;;;;;;;;;22.70;52.60;;;;;;1558489;75;561;-57
2023/05/21 04:50:30;;;;;;;;;;;22.70;52.70;;;;;;1544461;75;706;-57
2023/05/21 04:52:33;;;;;;;;;;;22.70;52.60;;;;;;1554448;75;710;-56
2023/05/21 04:54:37;;;;;;;;;;;22.70;52.60;;;;;;1548533;75;597;-56
2023/05/21 04:56:39;;;;;;;;;;;22.70;52.60;;;;;;1540215;74;1473;-56
2023/05/21 04:58:41;;;;;;;;;;;22.70;52.70;;;;;;1553044;75;1421;-56
2023/05/21 05:00:45;;;;;;;;;;;22.80;52.60;;;;;;1568570;74;581;-56
2023/05/21 05:02:46;;;;;;;;;;;22.80;52.60;;;;;;1567896;75;1016;-57
2023/05/21 05:04:48;;;;;;;;;;;22.80;52.50;;;;;;1563044;74;1932;-57
2023/05/21 05:06:50;;;;;;;;;;;22.70;52.50;;;;;;1552980;74;1154;-57
2023/05/21 05:08:52;;;;;;;;;;;22.70;52.50;;;;;;1540827;75;753;-58
2023/05/21 05:10:54;;;;;;;;;;;22.80;52.50;;;;;;1542903;75;634;-59
2023/05/21 05:12:56;;;;;;;;;;;22.80;52.40;;;;;;1555270;75;1503;-57
2023/05/21 05:14:58;;;;;;;;;;;22.70;52.40;;;;;;1559453;75;724;-57
2023/05/21 05:17:00;;;;;;;;;;;22.70;52.50;;;;;;1540368;75;1158;-57
2023/05/21 05:19:02;;;;;;;;;;;22.70;52.50;;;;;;1553158;75;688;-58
2023/05/21 05:21:04;;;;;;;;;;;22.70;52.70;;;;;;1556678;75;674;-57
2023/05/21 05:23:06;;;;;;;;;;;22.70;52.60;;;;;;1557657;75;597;-58
2023/05/21 05:25:08;;;;;;;;;;;22.70;52.50;;;;;;1544614;74;1936;-57
2023/05/21 05:27:10;;;;;;;;;;;22.80;52.40;;;;;;1568104;74;1143;-57
2023/05/21 05:29:11;;;;;;;;;;;22.70;52.30;;;;;;1564337;75;737;-57
2023/05/21 05:31:13;;;;;;;;;;;22.70;52.40;;;;;;1559675;75;729;-57
2023/05/21 05:33:15;;;;;;;;;;;22.70;52.40;;;;;;1557696;75;698;-57
2023/05/21 05:35:17;;;;;;;;;;;22.70;52.70;;;;;;1549857;75;1000;-57
2023/05/21 05:37:19;;;;;;;;;;;22.70;52.60;;;;;;1555550;74;1109;-57
2023/05/21 05:39:21;;;;;;;;;;;22.70;52.60;;;;;;1561166;74;1374;-57
2023/05/21 05:41:23;;;;;;;;;;;22.70;53.10;;;;;;1551590;74;808;-56
2023/05/21 05:45:50;;;;;;;;;;;22.70;53.00;;;;;;1600092;72;639;-56
2023/05/21 05:47:52;;;;;;;;;;;22.70;52.90;;;;;;1588715;73;1164;-58
2023/05/21 05:49:54;;;;;;;;;;;22.70;52.80;;;;;;1585938;73;677;-58
2023/05/21 05:51:56;;;;;;;;;;;22.70;52.80;;;;;;1592340;73;701;-58
2023/05/21 05:53:58;;;;;;;;;;;22.80;52.80;;;;;;1584624;73;1586;-57
2023/05/21 05:56:00;;;;;;;;;;;22.70;52.80;;;;;;1586369;73;715;-57
2023/05/21 05:58:02;;;;;;;;;;;22.70;52.80;;;;;;1588910;73;1100;-56
2023/05/21 06:00:04;;;;;;;;;;;22.70;53.00;;;;;;1586643;73;783;-58
2023/05/21 06:03:56;;;;;;;;;;;22.70;53.10;;;;;;1607501;72;982;-56
2023/05/21 06:05:57;;;;;;;;;;;22.70;53.00;;;;;;1565814;74;618;-57
2023/05/21 06:08:00;;;;;;;;;;;22.70;53.00;;;;;;1562383;75;1528;-56
2023/05/21 06:10:02;;;;;;;;;;;22.70;52.80;;;;;;1560949;75;758;-57
2023/05/21 06:12:05;;;;;;;;;;;22.70;53.00;;;;;;1556617;75;678;-57
2023/05/21 06:14:07;;;;;;;;;;;22.70;53.10;;;;;;1552716;75;695;-57
2023/05/21 06:16:09;;;;;;;;;;;22.60;53.20;;;;;;1548780;75;728;-57
2023/05/21 06:33:49;;;;;;;;;;;22.30;54.00;;;;;;1605179;72;1017;-58
2023/05/21 06:35:51;;;;;;;;;;;22.40;53.60;;;;;;1569499;74;1428;-56
2023/05/21 06:37:52;;;;;;;;;;;22.40;53.60;;;;;;1547948;75;1434;-58
2023/05/21 06:39:54;;;;;;;;;;;22.50;53.40;;;;;;1548494;75;1442;-57
2023/05/21 06:41:56;;;;;;;;;;;22.50;53.20;;;;;;1545942;75;1395;-57
2023/05/21 06:43:58;;;;;;;;;;;22.60;53.10;;;;;;1550505;75;1462;-57
2023/05/21 06:46:00;;;;;;;;;;;22.60;52.90;;;;;;1546521;75;1408;-56
2023/05/21 06:48:02;;;;;;;;;;;22.60;52.80;;;;;;1543317;75;1411;-57
2023/05/21 06:50:04;;;;;;;;;;;22.60;52.70;;;;;;1542341;75;1340;-59
2023/05/21 06:52:06;;;;;;;;;;;22.60;52.60;;;;;;1544265;75;1930;-58
2023/05/21 06:54:08;;;;;;;;;;;22.60;52.60;;;;;;1552290;75;1394;-58
2023/05/21 06:56:11;;;;;;;;;;;22.60;52.60;;;;;;1540775;75;1444;-58
2023/05/21 06:58:13;;;;;;;;;;;22.60;52.50;;;;;;1547703;75;1092;-57
2023/05/21 07:00:15;;;;;;;;;;;22.60;52.40;;;;;;1547071;75;1437;-57
2023/05/21 07:02:17;;;;;;;;;;;22.60;52.40;;;;;;1548811;75;1459;-56
2023/05/21 07:04:19;;;;;;;;;;;22.60;52.30;;;;;;1544488;75;1480;-57
2023/05/21 07:06:21;;;;;;;;;;;22.60;52.30;;;;;;1552221;75;1378;-56
2023/05/21 07:08:23;;;;;;;;;;;22.60;52.30;;;;;;1540808;75;1383;-56
2023/05/21 07:10:25;;;;;;;;;;;22.60;52.30;;;;;;1542728;75;1500;-58
2023/05/21 07:12:27;;;;;;;;;;;22.60;52.30;;;;;;1548004;75;1937;-58
2023/05/21 07:14:28;;;;;;;;;;;22.60;52.20;;;;;;1552105;75;1580;-57
2023/05/21 07:16:30;;;;;;;;;;;22.60;52.20;;;;;;1543677;75;1438;-56
2023/05/21 07:18:32;;;;;;;;;;;22.60;52.10;;;;;;1549558;75;1458;-57
2023/05/21 07:20:34;;;;;;;;;;;22.60;52.10;;;;;;1545527;76;1479;-56
2023/05/21 07:22:37;;;;;;;;;;;22.60;52.10;;;;;;1547591;75;1463;-56
2023/05/21 07:24:39;;;;;;;;;;;22.60;52.10;;;;;;1548573;75;1451;-56
2023/05/21 07:26:41;;;;;;;;;;;22.60;52.10;;;;;;1542852;75;1410;-57
2023/05/21 07:28:44;;;;;;;;;;;22.60;52.00;;;;;;1546899;75;1375;-57
2023/05/21 07:30:45;;;;;;;;;;;22.60;52.10;;;;;;1557093;75;1410;-56
2023/05/21 07:32:47;;;;;;;;;;;22.60;52.00;;;;;;1550600;75;1943;-57
2023/05/21 07:34:50;;;;;;;;;;;22.60;52.00;;;;;;1549731;75;1398;-57
2023/05/21 07:36:52;;;;;;;;;;;22.60;52.00;;;;;;1546746;75;1409;-56
2023/05/21 07:38:54;;;;;;;;;;;22.60;52.00;;;;;;1530096;75;1540;-57
2023/05/21 07:40:56;;;;;;;;;;;22.60;51.90;;;;;;1552443;75;1503;-56
2023/05/21 07:42:58;;;;;;;;;;;22.60;51.90;;;;;;1541007;75;1226;-57
2023/05/21 07:45:01;;;;;;;;;;;22.60;52.00;;;;;;1537067;75;1416;-57
2023/05/21 07:47:03;;;;;;;;;;;22.60;51.90;;;;;;1546013;75;1388;-57
2023/05/21 07:49:04;;;;;;;;;;;22.60;52.00;;;;;;1543744;75;1478;-56
2023/05/21 07:51:06;;;;;;;;;;;22.60;52.00;;;;;;1544257;75;993;-58
2023/05/21 07:53:08;;;;;;;;;;;22.60;52.20;;;;;;1542941;75;1943;-58
2023/05/21 07:55:10;;;;;;;;;;;22.60;52.30;;;;;;1538835;75;1007;-57
2023/05/21 07:57:12;;;;;;;;;;;22.60;52.70;;;;;;1551959;75;1243;-56
2023/05/21 07:59:14;;;;;;;;;;;22.60;53.00;;;;;;1550661;75;1485;-57
2023/05/21 08:01:16;;;;;;;;;;;22.60;53.00;;;;;;1556225;75;1223;-56
2023/05/21 08:03:18;;;;;;;;;;;22.60;53.10;;;;;;1551288;75;1090;-56
2023/05/21 08:05:22;;;;;;;;;;;22.70;53.50;;;;;;1553595;75;1166;-57
2023/05/21 08:07:23;;;;;;;;;;;22.70;53.50;;;;;;1541703;75;1730;-59
2023/05/21 08:09:25;;;;;;;;;;;22.70;53.40;;;;;;1542741;75;1280;-57
2023/05/21 08:13:20;;;;;;;;;;;22.80;53.50;;;;;;1597676;72;1495;-58
2023/05/21 08:15:22;;;;;;;;;;;22.80;53.60;;;;;;1579889;74;1461;-58
2023/05/21 08:17:24;;;;;;;;;;;22.80;53.70;;;;;;1552296;74;1235;-56
2023/05/21 08:19:25;;;;;;;;;;;23.00;53.70;;;;;;1550649;76;1253;-56
2023/05/21 08:21:27;;;;;;;;;;;23.00;53.70;;;;;;1551428;76;1174;-57
2023/05/21 08:23:29;;;;;;;;;;;23.00;53.60;;;;;;1549534;76;1240;-57
2023/05/21 08:25:31;;;;;;;;;;;23.00;53.50;;;;;;1539622;76;1092;-58
2023/05/21 08:27:33;;;;;;;;;;;23.10;53.50;;;;;;1551509;76;1521;-58
2023/05/21 08:29:35;;;;;;;;;;;23.10;53.50;;;;;;1544316;76;1278;-57
2023/05/21 08:31:39;;;;;;;;;;;23.10;53.40;;;;;;1542078;76;1939;-57
2023/05/21 08:33:41;;;;;;;;;;;23.10;53.30;;;;;;1544528;76;1485;-56
2023/05/21 08:35:43;;;;;;;;;;;23.20;53.30;;;;;;1510320;76;1529;-57
2023/05/21 08:37:45;;;;;;;;;;;23.20;53.30;;;;;;1548972;75;1249;-56
2023/05/21 08:39:47;;;;;;;;;;;23.20;53.10;;;;;;1558992;76;1281;-56
2023/05/21 08:41:50;;;;;;;;;;;23.20;53.10;;;;;;1545307;76;1393;-55
2023/05/21 08:43:54;;;;;;;;;;;23.30;53.10;;;;;;1550746;76;1311;-55
2023/05/21 08:46:01;;;;;;;;;;;23.30;53.00;;;;;;1542140;76;1524;-56
2023/05/21 08:48:00;;;;;;;;;;;23.20;52.80;;;;;;1538997;76;1286;-56
2023/05/21 08:50:03;;;;;;;;;;;23.30;52.80;;;;;;1543090;76;1221;-56
2023/05/21 08:52:05;;;;;;;;;;;23.30;52.70;;;;;;1544692;76;1938;-57
2023/05/21 08:54:07;;;;;;;;;;;23.30;52.60;;;;;;1554279;76;1301;-56
2023/05/21 08:56:11;;;;;;;;;;;23.30;52.60;;;;;;1548768;76;1550;-57
2023/05/21 08:58:13;;;;;;;;;;;23.40;52.40;;;;;;1545724;76;1685;-57
2023/05/21 09:00:15;;;;;;;;;;;23.40;52.40;;;;;;1547956;76;1243;-57
2023/05/21 09:02:18;;;;;;;;;;;23.30;52.30;;;;;;1550715;76;1215;-58
2023/05/21 09:04:20;;;;;;;;;;;23.40;52.30;;;;;;1552678;76;1315;-57
2023/05/21 09:06:24;;;;;;;;;;;23.30;52.30;;;;;;1548921;76;1259;-57
2023/05/21 09:08:31;;;;;;;;;;;23.40;52.30;;;;;;1546590;76;1446;-58
2023/05/21 09:10:35;;;;;;;;;;;23.40;52.30;;;;;;1540104;76;1403;-57
2023/05/21 09:12:37;;;;;;;;;;;23.50;52.50;;;;;;1544843;76;1972;-58
2023/05/21 09:14:39;;;;;;;;;;;23.40;52.30;;;;;;1538036;75;1260;-58
2023/05/21 09:16:41;;;;;;;;;;;23.40;52.30;;;;;;1542243;76;1434;-59
2023/05/21 09:18:43;;;;;;;;;;;23.50;52.40;;;;;;1537687;76;1102;-57
2023/05/21 09:20:45;;;;;;;;;;;23.40;52.30;;;;;;1527308;76;1022;-58
2023/05/21 09:22:48;;;;;;;;;;;23.40;52.20;;;;;;1533359;76;1264;-57
2023/05/21 09:24:51;;;;;;;;;;;23.50;52.20;;;;;;1537353;76;1410;-58
2023/05/21 09:26:53;;;;;;;;;;;23.50;52.20;;;;;;1532541;76;1343;-58
2023/05/21 09:28:58;;;;;;;;;;;23.50;52.10;;;;;;1529034;76;1260;-57
2023/05/21 09:31:02;;;;;;;;;;;23.50;52.10;;;;;;1537816;76;1252;-57
2023/05/21 09:33:04;;;;;;;;;;;23.50;52.10;;;;;;1537126;76;1944;-58
2023/05/21 09:35:09;;;;;;;;;;;23.50;52.10;;;;;;1540535;76;1321;-57
2023/05/21 09:37:12;;;;;;;;;;;23.50;52.10;;;;;;1539521;76;1479;-58
2023/05/21 09:39:15;;;;;;;;;;;23.60;52.10;;;;;;1536090;76;1205;-59
2023/05/21 09:41:18;;;;;;;;;;;23.50;52.10;;;;;;1528564;76;1242;-58
2023/05/21 09:43:20;;;;;;;;;;;23.50;52.10;;;;;;1545673;76;1226;-58
2023/05/21 09:45:26;;;;;;;;;;;23.50;52.20;;;;;;1549619;76;1209;-57
2023/05/21 09:47:28;;;;;;;;;;;23.40;52.00;;;;;;1541360;76;1332;-57
2023/05/21 09:49:30;;;;;;;;;;;23.30;51.50;;;;;;1539835;76;1187;-57
2023/05/21 09:51:32;;;;;;;;;;;23.30;51.60;;;;;;1529044;76;1561;-58
2023/05/21 09:53:34;;;;;;;;;;;23.30;51.80;;;;;;1531723;76;1914;-57
2023/05/21 09:55:36;;;;;;;;;;;23.40;51.80;;;;;;1541477;76;1158;-58
2023/05/21 09:57:44;;;;;;;;;;;23.40;51.70;;;;;;1540267;76;1154;-59
2023/05/21 09:59:46;;;;;;;;;;;23.40;51.60;;;;;;1538057;76;1085;-59
2023/05/21 10:01:50;;;;;;;;;;;23.40;51.60;;;;;;1528602;76;1424;-57
2023/05/21 10:03:58;;;;;;;;;;;23.40;51.60;;;;;;1543629;76;1494;-57
2023/05/21 10:06:00;;;;;;;;;;;23.50;51.80;;;;;;1533307;76;1354;-58
2023/05/21 10:08:02;;;;;;;;;;;23.50;51.80;;;;;;1533641;75;1269;-58
2023/05/21 10:10:04;;;;;;;;;;;23.40;51.60;;;;;;1540278;76;1274;-57
2023/05/21 10:12:06;;;;;;;;;;;23.40;51.60;;;;;;1539868;76;1927;-58
2023/05/21 10:14:16;;;;;;;;;;;23.50;51.70;;;;;;1549363;76;1181;-57
2023/05/21 10:16:17;;;;;;;;;;;23.40;51.60;;;;;;1551612;75;1261;-58
2023/05/21 10:18:20;;;;;;;;;;;23.50;51.80;;;;;;1556740;76;1130;-58
2023/05/21 10:20:22;;;;;;;;;;;23.50;51.70;;;;;;1547792;76;1564;-58
2023/05/21 10:22:24;;;;;;;;;;;23.50;51.80;;;;;;1547563;76;1385;-58
2023/05/21 10:24:26;;;;;;;;;;;23.60;51.70;;;;;;1552049;76;1224;-58
2023/05/21 10:26:28;;;;;;;;;;;23.50;51.70;;;;;;1556806;76;1284;-57
2023/05/21 10:28:30;;;;;;;;;;;23.60;51.80;;;;;;1547175;76;1293;-58
2023/05/21 10:30:31;;;;;;;;;;;23.60;51.80;;;;;;1559261;76;1169;-59
2023/05/21 10:32:33;;;;;;;;;;;23.50;51.90;;;;;;1551502;76;1942;-58
2023/05/21 10:34:35;;;;;;;;;;;23.50;52.10;;;;;;1558920;76;1451;-58
2023/05/21 10:36:37;;;;;;;;;;;23.50;52.20;;;;;;1562712;75;1130;-58
2023/05/21 10:38:39;;;;;;;;;;;23.50;52.20;;;;;;1549507;76;1253;-57
2023/05/21 10:40:41;;;;;;;;;;;23.60;52.30;;;;;;1554886;76;1449;-57
2023/05/21 10:43:00;;;;;;;;;;;23.60;52.40;;;;;;1552381;76;1320;-58
2023/05/21 10:45:20;;;;;;;;;;;23.60;52.40;;;;;;1560578;76;1226;-58
2023/05/21 10:47:29;;;;;;;;;;;23.60;52.40;;;;;;1558219;75;1494;-59
2023/05/21 10:49:45;;;;;;;;;;;23.50;52.60;;;;;;1554164;76;1321;-58
2023/05/21 10:51:55;;;;;;;;;;;23.50;52.60;;;;;;1550028;76;1092;-57
2023/05/21 10:54:04;;;;;;;;;;;23.50;52.50;;;;;;1555768;76;1975;-57
2023/05/21 11:06:02;;;;;;;;;;;23.10;53.20;;;;;;1606098;72;664;-57
2023/05/21 11:08:04;;;;;;;;;;;23.10;53.10;;;;;;1558276;75;1198;-57
2023/05/21 11:10:24;;;;;;;;;;;23.10;53.20;;;;;;1553984;75;771;-57
2023/05/21 11:12:26;;;;;;;;;;;23.10;53.10;;;;;;1557475;75;667;-57
2023/05/21 11:14:35;;;;;;;;;;;23.20;52.90;;;;;;1556900;75;700;-57
2023/05/21 11:16:37;;;;;;;;;;;23.20;52.80;;;;;;1550982;74;1189;-57
2023/05/21 11:18:40;;;;;;;;;;;23.20;52.70;;;;;;1549830;75;710;-58
2023/05/21 11:20:42;;;;;;;;;;;23.20;52.60;;;;;;1549025;75;683;-57
2023/05/21 11:22:45;;;;;;;;;;;23.30;52.60;;;;;;1530632;76;1302;-58
2023/05/21 11:24:47;;;;;;;;;;;23.30;52.50;;;;;;1524472;76;1907;-58
2023/05/21 11:26:51;;;;;;;;;;;23.40;52.40;;;;;;1549654;75;1159;-56
2023/05/21 11:29:07;;;;;;;;;;;23.40;52.40;;;;;;1555080;75;739;-57
2023/05/21 11:31:25;;;;;;;;;;;23.40;52.30;;;;;;1543354;75;723;-57
2023/05/21 11:33:27;;;;;;;;;;;23.40;52.30;;;;;;1553225;75;716;-57
2023/05/21 11:35:29;;;;;;;;;;;23.30;52.30;;;;;;1557371;75;680;-57
2023/05/21 11:37:32;;;;;;;;;;;23.30;52.30;;;;;;1557207;75;1159;-57
2023/05/21 11:39:35;;;;;;;;;;;23.40;52.30;;;;;;1556720;75;668;-57
2023/05/21 11:41:56;;;;;;;;;;;23.30;52.30;;;;;;1551938;75;1759;-57
2023/05/21 11:44:00;;;;;;;;;;;23.30;52.20;;;;;;1549920;75;744;-56
2023/05/21 11:46:02;;;;;;;;;;;23.30;52.20;;;;;;1547797;75;1934;-57
2023/05/21 11:48:04;;;;;;;;;;;23.30;52.10;;;;;;1544521;74;1114;-56
2023/05/21 11:50:06;;;;;;;;;;;23.30;52.20;;;;;;1552196;75;736;-57
2023/05/21 11:52:08;;;;;;;;;;;23.40;52.10;;;;;;1523779;76;1263;-58
2023/05/21 11:54:10;;;;;;;;;;;23.40;52.10;;;;;;1559475;75;719;-57
2023/05/21 11:56:12;;;;;;;;;;;23.30;52.10;;;;;;1554092;75;656;-58
2023/05/21 11:58:15;;;;;;;;;;;23.30;52.10;;;;;;1556412;75;1133;-57
2023/05/21 12:00:17;;;;;;;;;;;23.40;52.00;;;;;;1554530;75;1455;-57
2023/05/21 12:02:19;;;;;;;;;;;23.30;52.00;;;;;;1553300;75;677;-56
2023/05/21 12:04:21;;;;;;;;;;;23.30;52.00;;;;;;1555338;75;1929;-57
2023/05/21 12:06:26;;;;;;;;;;;23.40;52.00;;;;;;1545805;75;1131;-57
2023/05/21 12:08:29;;;;;;;;;;;23.40;52.00;;;;;;1550328;75;703;-57
2023/05/21 12:10:31;;;;;;;;;;;23.40;51.80;;;;;;1546029;75;795;-57
2023/05/21 12:12:33;;;;;;;;;;;23.30;51.90;;;;;;1541579;75;685;-57
2023/05/21 12:14:35;;;;;;;;;;;23.40;51.90;;;;;;1557134;75;667;-57
2023/05/21 12:16:37;;;;;;;;;;;23.40;51.80;;;;;;1546559;75;1188;-57
2023/05/21 12:18:39;;;;;;;;;;;23.40;51.80;;;;;;1546399;74;643;-56
2023/05/21 12:20:41;;;;;;;;;;;23.30;51.80;;;;;;1545905;75;703;-56
2023/05/21 12:22:43;;;;;;;;;;;23.30;51.80;;;;;;1557815;75;775;-57
2023/05/21 12:24:45;;;;;;;;;;;23.40;51.90;;;;;;1541542;75;1935;-58
2023/05/21 12:26:48;;;;;;;;;;;23.30;51.80;;;;;;1545926;75;1149;-57
2023/05/21 12:28:52;;;;;;;;;;;23.40;51.80;;;;;;1541078;75;707;-57
2023/05/21 12:30:54;;;;;;;;;;;23.40;51.80;;;;;;1535638;75;1730;-57
2023/05/21 12:32:57;;;;;;;;;;;23.30;51.80;;;;;;1542590;75;649;-57
2023/05/21 12:34:59;;;;;;;;;;;23.30;51.80;;;;;;1547088;75;788;-57
2023/05/21 12:37:01;;;;;;;;;;;23.30;51.80;;;;;;1544032;75;1148;-57
2023/05/21 12:39:03;;;;;;;;;;;23.40;51.80;;;;;;1547378;75;609;-56
2023/05/21 12:41:05;;;;;;;;;;;23.30;51.80;;;;;;1541752;75;708;-58
2023/05/21 12:43:07;;;;;;;;;;;23.30;51.70;;;;;;1532981;75;662;-58